sensor_id;sensor_type;location;lat;lon;timestamp;pressure;altitude;pressure_sealevel;temperature;humidity
48810;BME280;40070;47.322;18.784;2023-02-02T00:01:46;1001.09;;;6.61;59.79
48810;BME280;40070;47.322;18.784;2023-02-02T00:03:49;1001.12;;;6.55;60.50
48810;BME280;40070;47.322;18.784;2023-02-02T00:05:51;1001.17;;;6.68;60.26
48810;BME280;40070;47.322;18.784;2023-02-02T00:07:54;1001.12;;;6.58;59.75
48810;BME280;40070;47.322;18.784;2023-02-02T00:09:56;1001.22;;;6.74;59.81
48810;BME280;40070;47.322;18.784;2023-02-02T00:11:59;1001.28;;;6.60;59.75
48810;BME280;40070;47.322;18.784;2023-02-02T00:14:02;1001.06;;;6.62;60.35
48810;BME280;40070;47.322;18.784;2023-02-02T00:18:27;1001.06;;;6.71;59.14
48810;BME280;40070;47.322;18.784;2023-02-02T00:20:30;1000.93;;;6.74;59.31
48810;BME280;40070;47.322;18.784;2023-02-02T00:22:32;1000.94;;;6.50;60.08
48810;BME280;40070;47.322;18.784;2023-02-02T00:24:34;1000.96;;;6.45;60.29
48810;BME280;40070;47.322;18.784;2023-02-02T00:26:37;1001.00;;;6.36;60.46
48810;BME280;40070;47.322;18.784;2023-02-02T00:28:40;1000.95;;;6.39;60.42
48810;BME280;40070;47.322;18.784;2023-02-02T00:30:43;1000.96;;;6.45;59.82
48810;BME280;40070;47.322;18.784;2023-02-02T00:32:45;1000.94;;;6.42;59.03
48810;BME280;40070;47.322;18.784;2023-02-02T00:34:47;1000.94;;;6.44;58.74
48810;BME280;40070;47.322;18.784;2023-02-02T00:36:50;1000.94;;;6.74;57.79
48810;BME280;40070;47.322;18.784;2023-02-02T00:38:52;1000.89;;;6.73;57.24
48810;BME280;40070;47.322;18.784;2023-02-02T00:40:54;1000.89;;;6.83;57.01
48810;BME280;40070;47.322;18.784;2023-02-02T00:42:57;1000.95;;;6.71;57.21
48810;BME280;40070;47.322;18.784;2023-02-02T00:44:59;1001.03;;;6.69;57.07
48810;BME280;40070;47.322;18.784;2023-02-02T00:47:02;1001.08;;;6.79;56.32
48810;BME280;40070;47.322;18.784;2023-02-02T00:49:04;1001.22;;;6.67;56.51
48810;BME280;40070;47.322;18.784;2023-02-02T00:51:06;1001.24;;;6.69;56.53
48810;BME280;40070;47.322;18.784;2023-02-02T00:53:09;1001.21;;;6.43;57.53
48810;BME280;40070;47.322;18.784;2023-02-02T00:55:11;1001.19;;;6.47;58.38
48810;BME280;40070;47.322;18.784;2023-02-02T00:57:14;1001.12;;;6.28;58.74
48810;BME280;40070;47.322;18.784;2023-02-02T00:59:16;1001.26;;;6.23;59.38
48810;BME280;40070;47.322;18.784;2023-02-02T01:01:19;1001.30;;;6.18;59.57
48810;BME280;40070;47.322;18.784;2023-02-02T01:03:22;1001.32;;;6.16;60.00
48810;BME280;40070;47.322;18.784;2023-02-02T01:05:24;1001.27;;;6.19;60.32
48810;BME280;40070;47.322;18.784;2023-02-02T01:07:27;1001.20;;;6.31;60.21
48810;BME280;40070;47.322;18.784;2023-02-02T01:09:29;1001.35;;;6.27;60.53
48810;BME280;40070;47.322;18.784;2023-02-02T01:11:31;1001.35;;;6.20;60.67
48810;BME280;40070;47.322;18.784;2023-02-02T01:13:34;1001.35;;;6.24;61.31
48810;BME280;40070;47.322;18.784;2023-02-02T01:15:36;1001.34;;;6.17;61.60
48810;BME280;40070;47.322;18.784;2023-02-02T01:17:39;1001.41;;;6.23;61.90
48810;BME280;40070;47.322;18.784;2023-02-02T01:19:41;1001.44;;;6.07;62.78
48810;BME280;40070;47.322;18.784;2023-02-02T01:21:44;1001.51;;;6.19;63.59
48810;BME280;40070;47.322;18.784;2023-02-02T01:23:46;1001.63;;;5.94;65.43
48810;BME280;40070;47.322;18.784;2023-02-02T01:25:55;1001.72;;;5.64;67.48
48810;BME280;40070;47.322;18.784;2023-02-02T01:27:58;1001.79;;;5.40;69.02
48810;BME280;40070;47.322;18.784;2023-02-02T01:30:00;1001.86;;;5.33;70.13
48810;BME280;40070;47.322;18.784;2023-02-02T01:32:02;1001.73;;;5.11;70.80
48810;BME280;40070;47.322;18.784;2023-02-02T01:34:05;1001.71;;;5.07;71.12
48810;BME280;40070;47.322;18.784;2023-02-02T01:36:09;1001.69;;;4.95;71.48
48810;BME280;40070;47.322;18.784;2023-02-02T01:38:12;1001.57;;;4.82;72.04
48810;BME280;40070;47.322;18.784;2023-02-02T01:40:14;1001.53;;;4.90;71.90
48810;BME280;40070;47.322;18.784;2023-02-02T01:42:20;1001.54;;;4.90;71.77
48810;BME280;40070;47.322;18.784;2023-02-02T01:46:50;1001.42;;;4.85;71.52
48810;BME280;40070;47.322;18.784;2023-02-02T01:48:57;1001.36;;;5.17;70.66
48810;BME280;40070;47.322;18.784;2023-02-02T01:51:01;1001.23;;;5.34;69.84
48810;BME280;40070;47.322;18.784;2023-02-02T01:53:05;1001.18;;;5.16;70.22
48810;BME280;40070;47.322;18.784;2023-02-02T01:55:09;1001.20;;;5.21;70.01
48810;BME280;40070;47.322;18.784;2023-02-02T01:57:17;1001.18;;;4.85;71.00
48810;BME280;40070;47.322;18.784;2023-02-02T01:59:22;1001.15;;;4.85;71.33
48810;BME280;40070;47.322;18.784;2023-02-02T02:01:25;1001.12;;;4.80;71.38
48810;BME280;40070;47.322;18.784;2023-02-02T02:03:28;1001.08;;;5.04;70.87
48810;BME280;40070;47.322;18.784;2023-02-02T02:05:36;1000.99;;;4.85;71.06
48810;BME280;40070;47.322;18.784;2023-02-02T02:07:39;1000.98;;;5.07;70.57
48810;BME280;40070;47.322;18.784;2023-02-02T02:09:44;1001.00;;;5.14;69.82
48810;BME280;40070;47.322;18.784;2023-02-02T02:11:47;1000.96;;;4.93;70.52
48810;BME280;40070;47.322;18.784;2023-02-02T02:13:50;1000.95;;;5.05;70.44
48810;BME280;40070;47.322;18.784;2023-02-02T02:16:01;1000.94;;;5.11;70.16
48810;BME280;40070;47.322;18.784;2023-02-02T02:18:24;1000.85;;;5.23;69.78
48810;BME280;40070;47.322;18.784;2023-02-02T02:20:52;1000.96;;;5.33;69.23
48810;BME280;40070;47.322;18.784;2023-02-02T02:27:59;1000.55;;;5.36;69.02
48810;BME280;40070;47.322;18.784;2023-02-02T02:30:16;1000.76;;;5.43;68.77
48810;BME280;40070;47.322;18.784;2023-02-02T02:37:15;1001.17;;;5.20;69.22
48810;BME280;40070;47.322;18.784;2023-02-02T02:39:29;1001.30;;;5.32;69.07
48810;BME280;40070;47.322;18.784;2023-02-02T02:41:35;1001.34;;;5.42;68.77
48810;BME280;40070;47.322;18.784;2023-02-02T02:43:40;1001.33;;;5.34;69.02
48810;BME280;40070;47.322;18.784;2023-02-02T02:45:44;1001.32;;;5.46;68.85
48810;BME280;40070;47.322;18.784;2023-02-02T02:47:47;1001.34;;;5.41;68.73
48810;BME280;40070;47.322;18.784;2023-02-02T02:49:50;1001.36;;;5.32;69.68
48810;BME280;40070;47.322;18.784;2023-02-02T02:51:53;1001.47;;;5.35;69.77
48810;BME280;40070;47.322;18.784;2023-02-02T02:53:55;1001.58;;;5.13;70.58
48810;BME280;40070;47.322;18.784;2023-02-02T03:00:41;1001.15;;;5.12;71.01
48810;BME280;40070;47.322;18.784;2023-02-02T03:02:59;1001.12;;;5.13;71.32
48810;BME280;40070;47.322;18.784;2023-02-02T03:05:16;1001.22;;;4.94;71.37
48810;BME280;40070;47.322;18.784;2023-02-02T03:07:24;1001.05;;;4.96;71.54
48810;BME280;40070;47.322;18.784;2023-02-02T03:09:31;1001.01;;;4.98;71.51
48810;BME280;40070;47.322;18.784;2023-02-02T03:11:36;1000.93;;;5.06;71.17
48810;BME280;40070;47.322;18.784;2023-02-02T03:13:39;1000.84;;;5.13;70.83
48810;BME280;40070;47.322;18.784;2023-02-02T03:15:45;1000.91;;;5.17;70.28
48810;BME280;40070;47.322;18.784;2023-02-02T03:17:48;1000.92;;;5.24;69.71
48810;BME280;40070;47.322;18.784;2023-02-02T03:19:51;1000.95;;;5.56;69.00
48810;BME280;40070;47.322;18.784;2023-02-02T03:21:53;1001.04;;;5.37;69.76
48810;BME280;40070;47.322;18.784;2023-02-02T03:23:56;1001.07;;;5.17;70.49
48810;BME280;40070;47.322;18.784;2023-02-02T03:25:58;1001.14;;;5.04;70.57
48810;BME280;40070;47.322;18.784;2023-02-02T03:28:01;1001.10;;;4.97;70.88
48810;BME280;40070;47.322;18.784;2023-02-02T03:30:08;1001.06;;;4.90;71.14
48810;BME280;40070;47.322;18.784;2023-02-02T03:32:11;1001.07;;;4.86;70.80
48810;BME280;40070;47.322;18.784;2023-02-02T03:34:13;1001.03;;;4.83;70.94
48810;BME280;40070;47.322;18.784;2023-02-02T03:36:15;1001.11;;;4.82;71.09
48810;BME280;40070;47.322;18.784;2023-02-02T03:38:18;1001.15;;;4.54;71.86
48810;BME280;40070;47.322;18.784;2023-02-02T03:40:20;1001.12;;;4.61;71.95
48810;BME280;40070;47.322;18.784;2023-02-02T03:42:22;1001.11;;;4.57;71.54
48810;BME280;40070;47.322;18.784;2023-02-02T03:44:25;1000.99;;;4.55;71.71
48810;BME280;40070;47.322;18.784;2023-02-02T03:46:27;1001.07;;;4.59;71.26
48810;BME280;40070;47.322;18.784;2023-02-02T03:48:30;1001.01;;;4.64;71.29
48810;BME280;40070;47.322;18.784;2023-02-02T03:50:33;1001.06;;;4.53;71.76
48810;BME280;40070;47.322;18.784;2023-02-02T03:52:35;1001.06;;;4.40;72.25
48810;BME280;40070;47.322;18.784;2023-02-02T03:54:38;1001.04;;;4.43;72.17
48810;BME280;40070;47.322;18.784;2023-02-02T03:56:40;1001.10;;;4.35;72.07
48810;BME280;40070;47.322;18.784;2023-02-02T03:58:42;1001.00;;;4.27;72.41
48810;BME280;40070;47.322;18.784;2023-02-02T04:00:45;1001.02;;;4.18;72.48
48810;BME280;40070;47.322;18.784;2023-02-02T04:02:47;1001.01;;;4.36;71.93
48810;BME280;40070;47.322;18.784;2023-02-02T04:04:50;1001.10;;;4.12;71.62
48810;BME280;40070;47.322;18.784;2023-02-02T04:06:52;1001.14;;;4.20;71.15
48810;BME280;40070;47.322;18.784;2023-02-02T04:08:54;1001.16;;;4.17;71.26
48810;BME280;40070;47.322;18.784;2023-02-02T04:10:57;1001.08;;;4.04;71.32
48810;BME280;40070;47.322;18.784;2023-02-02T04:12:59;1001.14;;;4.25;70.56
48810;BME280;40070;47.322;18.784;2023-02-02T04:15:01;1001.07;;;4.26;70.12
48810;BME280;40070;47.322;18.784;2023-02-02T04:17:04;1001.23;;;4.22;70.57
48810;BME280;40070;47.322;18.784;2023-02-02T04:19:06;1001.28;;;4.20;70.29
48810;BME280;40070;47.322;18.784;2023-02-02T04:21:09;1001.30;;;4.12;70.70
48810;BME280;40070;47.322;18.784;2023-02-02T04:23:11;1001.36;;;4.08;70.67
48810;BME280;40070;47.322;18.784;2023-02-02T04:25:13;1001.37;;;4.21;70.16
48810;BME280;40070;47.322;18.784;2023-02-02T04:27:16;1001.32;;;4.12;70.34
48810;BME280;40070;47.322;18.784;2023-02-02T04:29:18;1001.37;;;4.16;70.34
48810;BME280;40070;47.322;18.784;2023-02-02T04:31:20;1001.30;;;4.18;70.20
48810;BME280;40070;47.322;18.784;2023-02-02T04:33:23;1001.32;;;4.22;69.85
48810;BME280;40070;47.322;18.784;2023-02-02T04:35:26;1001.30;;;4.10;70.08
48810;BME280;40070;47.322;18.784;2023-02-02T04:37:32;1001.29;;;4.06;70.13
48810;BME280;40070;47.322;18.784;2023-02-02T04:39:34;1001.23;;;3.98;70.01
48810;BME280;40070;47.322;18.784;2023-02-02T04:41:36;1001.34;;;3.86;70.58
48810;BME280;40070;47.322;18.784;2023-02-02T04:43:39;1001.40;;;3.75;70.92
48810;BME280;40070;47.322;18.784;2023-02-02T04:45:41;1001.38;;;3.80;70.83
48810;BME280;40070;47.322;18.784;2023-02-02T04:47:43;1001.37;;;3.81;70.80
48810;BME280;40070;47.322;18.784;2023-02-02T04:49:46;1001.40;;;3.70;71.10
48810;BME280;40070;47.322;18.784;2023-02-02T04:51:48;1001.39;;;3.76;70.94
48810;BME280;40070;47.322;18.784;2023-02-02T04:53:50;1001.38;;;3.74;70.41
48810;BME280;40070;47.322;18.784;2023-02-02T04:55:53;1001.35;;;3.90;70.18
48810;BME280;40070;47.322;18.784;2023-02-02T04:57:55;1001.31;;;3.88;69.97
48810;BME280;40070;47.322;18.784;2023-02-02T04:59:58;1001.34;;;3.79;70.02
48810;BME280;40070;47.322;18.784;2023-02-02T05:02:00;1001.42;;;3.84;69.82
48810;BME280;40070;47.322;18.784;2023-02-02T05:04:03;1001.33;;;4.01;69.42
48810;BME280;40070;47.322;18.784;2023-02-02T05:06:05;1001.41;;;3.75;69.92
48810;BME280;40070;47.322;18.784;2023-02-02T05:08:08;1001.40;;;3.69;69.89
48810;BME280;40070;47.322;18.784;2023-02-02T05:10:10;1001.34;;;3.86;69.66
48810;BME280;40070;47.322;18.784;2023-02-02T05:12:13;1001.33;;;3.92;69.12
48810;BME280;40070;47.322;18.784;2023-02-02T05:14:15;1001.35;;;3.95;68.82
48810;BME280;40070;47.322;18.784;2023-02-02T05:16:18;1001.41;;;4.06;68.78
48810;BME280;40070;47.322;18.784;2023-02-02T05:18:21;1001.49;;;3.81;69.32
48810;BME280;40070;47.322;18.784;2023-02-02T05:20:23;1001.56;;;3.86;69.29
48810;BME280;40070;47.322;18.784;2023-02-02T05:22:25;1001.54;;;3.71;69.54
48810;BME280;40070;47.322;18.784;2023-02-02T05:24:28;1001.50;;;3.93;69.34
48810;BME280;40070;47.322;18.784;2023-02-02T05:26:30;1001.61;;;3.75;69.71
48810;BME280;40070;47.322;18.784;2023-02-02T05:28:32;1001.60;;;3.91;69.40
48810;BME280;40070;47.322;18.784;2023-02-02T05:30:37;1001.53;;;3.79;69.45
48810;BME280;40070;47.322;18.784;2023-02-02T05:32:39;1001.56;;;3.82;69.61
48810;BME280;40070;47.322;18.784;2023-02-02T05:34:42;1001.58;;;3.62;70.19
48810;BME280;40070;47.322;18.784;2023-02-02T05:36:44;1001.65;;;3.56;70.39
48810;BME280;40070;47.322;18.784;2023-02-02T05:38:46;1001.58;;;3.58;70.37
48810;BME280;40070;47.322;18.784;2023-02-02T05:40:49;1001.56;;;3.48;70.64
48810;BME280;40070;47.322;18.784;2023-02-02T05:42:51;1001.63;;;3.41;70.85
48810;BME280;40070;47.322;18.784;2023-02-02T05:44:53;1001.60;;;3.36;71.07
48810;BME280;40070;47.322;18.784;2023-02-02T05:46:56;1001.53;;;3.44;71.16
48810;BME280;40070;47.322;18.784;2023-02-02T05:48:58;1001.55;;;3.41;70.86
48810;BME280;40070;47.322;18.784;2023-02-02T05:51:04;1001.55;;;3.44;70.80
48810;BME280;40070;47.322;18.784;2023-02-02T05:53:08;1001.56;;;3.38;70.92
48810;BME280;40070;47.322;18.784;2023-02-02T05:55:11;1001.49;;;3.44;71.08
48810;BME280;40070;47.322;18.784;2023-02-02T05:57:13;1001.50;;;3.45;70.97
48810;BME280;40070;47.322;18.784;2023-02-02T05:59:16;1001.47;;;3.42;70.90
48810;BME280;40070;47.322;18.784;2023-02-02T06:01:18;1001.38;;;3.54;70.82
48810;BME280;40070;47.322;18.784;2023-02-02T06:03:21;1001.34;;;3.40;70.87
48810;BME280;40070;47.322;18.784;2023-02-02T06:05:23;1001.32;;;3.40;71.12
48810;BME280;40070;47.322;18.784;2023-02-02T06:07:26;1001.27;;;3.51;70.50
48810;BME280;40070;47.322;18.784;2023-02-02T06:09:28;1001.29;;;3.37;71.08
48810;BME280;40070;47.322;18.784;2023-02-02T06:11:30;1001.33;;;3.40;71.08
48810;BME280;40070;47.322;18.784;2023-02-02T06:13:33;1001.23;;;3.28;71.30
48810;BME280;40070;47.322;18.784;2023-02-02T06:15:35;1001.18;;;3.24;71.57
48810;BME280;40070;47.322;18.784;2023-02-02T06:17:38;1001.25;;;3.21;71.70
48810;BME280;40070;47.322;18.784;2023-02-02T06:19:40;1001.29;;;3.26;71.54
48810;BME280;40070;47.322;18.784;2023-02-02T06:21:42;1001.29;;;3.32;71.32
48810;BME280;40070;47.322;18.784;2023-02-02T06:23:45;1001.29;;;3.41;71.00
48810;BME280;40070;47.322;18.784;2023-02-02T06:25:47;1001.31;;;3.48;70.87
48810;BME280;40070;47.322;18.784;2023-02-02T06:27:53;1001.30;;;3.38;71.01
48810;BME280;40070;47.322;18.784;2023-02-02T06:29:56;1001.33;;;3.64;70.29
48810;BME280;40070;47.322;18.784;2023-02-02T06:31:58;1001.38;;;3.54;70.32
48810;BME280;40070;47.322;18.784;2023-02-02T06:34:00;1001.41;;;3.67;69.89
48810;BME280;40070;47.322;18.784;2023-02-02T06:36:03;1001.45;;;3.74;69.46
48810;BME280;40070;47.322;18.784;2023-02-02T06:38:06;1001.45;;;3.59;70.06
48810;BME280;40070;47.322;18.784;2023-02-02T06:40:09;1001.51;;;3.70;69.44
48810;BME280;40070;47.322;18.784;2023-02-02T06:42:11;1001.46;;;3.50;69.97
48810;BME280;40070;47.322;18.784;2023-02-02T06:44:14;1001.52;;;3.51;70.10
48810;BME280;40070;47.322;18.784;2023-02-02T06:46:16;1001.62;;;3.74;69.39
48810;BME280;40070;47.322;18.784;2023-02-02T06:48:18;1001.65;;;3.65;69.45
48810;BME280;40070;47.322;18.784;2023-02-02T06:50:21;1001.67;;;3.63;69.47
48810;BME280;40070;47.322;18.784;2023-02-02T06:52:23;1001.71;;;3.90;68.98
48810;BME280;40070;47.322;18.784;2023-02-02T06:54:25;1001.72;;;3.89;68.71
48810;BME280;40070;47.322;18.784;2023-02-02T06:56:28;1001.83;;;3.88;68.38
48810;BME280;40070;47.322;18.784;2023-02-02T06:58:30;1001.87;;;4.01;68.23
48810;BME280;40070;47.322;18.784;2023-02-02T07:00:33;1001.97;;;3.94;68.30
48810;BME280;40070;47.322;18.784;2023-02-02T07:02:35;1002.05;;;3.96;68.13
48810;BME280;40070;47.322;18.784;2023-02-02T07:04:38;1002.12;;;3.94;68.23
48810;BME280;40070;47.322;18.784;2023-02-02T07:06:40;1002.07;;;4.06;68.02
48810;BME280;40070;47.322;18.784;2023-02-02T07:08:43;1002.03;;;4.24;67.55
48810;BME280;40070;47.322;18.784;2023-02-02T07:10:45;1002.08;;;4.24;67.73
48810;BME280;40070;47.322;18.784;2023-02-02T07:12:48;1002.02;;;4.25;67.53
48810;BME280;40070;47.322;18.784;2023-02-02T07:14:50;1002.06;;;4.21;66.81
48810;BME280;40070;47.322;18.784;2023-02-02T07:16:52;1002.03;;;4.12;67.01
48810;BME280;40070;47.322;18.784;2023-02-02T07:18:55;1001.93;;;4.39;66.30
48810;BME280;40070;47.322;18.784;2023-02-02T07:20:57;1001.93;;;4.31;66.31
48810;BME280;40070;47.322;18.784;2023-02-02T07:23:01;1001.98;;;4.36;66.10
48810;BME280;40070;47.322;18.784;2023-02-02T07:25:07;1001.94;;;4.54;65.82
48810;BME280;40070;47.322;18.784;2023-02-02T07:27:09;1001.95;;;4.57;64.83
48810;BME280;40070;47.322;18.784;2023-02-02T07:29:12;1001.97;;;4.65;64.60
48810;BME280;40070;47.322;18.784;2023-02-02T07:31:19;1001.97;;;4.67;64.85
48810;BME280;40070;47.322;18.784;2023-02-02T07:33:21;1001.99;;;4.53;65.18
48810;BME280;40070;47.322;18.784;2023-02-02T07:35:24;1002.04;;;4.75;64.17
48810;BME280;40070;47.322;18.784;2023-02-02T07:37:26;1002.00;;;4.85;64.08
48810;BME280;40070;47.322;18.784;2023-02-02T07:39:28;1002.14;;;4.80;63.84
48810;BME280;40070;47.322;18.784;2023-02-02T07:41:32;1002.12;;;4.72;64.35
48810;BME280;40070;47.322;18.784;2023-02-02T07:43:35;1002.05;;;4.84;64.32
48810;BME280;40070;47.322;18.784;2023-02-02T07:45:37;1002.14;;;4.91;63.98
48810;BME280;40070;47.322;18.784;2023-02-02T07:47:39;1002.17;;;4.95;64.14
48810;BME280;40070;47.322;18.784;2023-02-02T07:49:42;1002.17;;;4.94;63.97
48810;BME280;40070;47.322;18.784;2023-02-02T07:51:44;1002.12;;;5.01;63.77
48810;BME280;40070;47.322;18.784;2023-02-02T07:53:48;1002.12;;;5.10;63.28
48810;BME280;40070;47.322;18.784;2023-02-02T07:55:51;1002.15;;;5.22;63.15
48810;BME280;40070;47.322;18.784;2023-02-02T07:57:53;1002.22;;;5.28;63.45
48810;BME280;40070;47.322;18.784;2023-02-02T07:59:55;1002.19;;;5.26;63.16
48810;BME280;40070;47.322;18.784;2023-02-02T08:01:58;1002.19;;;5.44;63.38
48810;BME280;40070;47.322;18.784;2023-02-02T08:04:00;1002.27;;;5.25;63.27
48810;BME280;40070;47.322;18.784;2023-02-02T08:06:18;1002.26;;;5.41;62.43
48810;BME280;40070;47.322;18.784;2023-02-02T08:08:21;1002.22;;;5.18;62.77
48810;BME280;40070;47.322;18.784;2023-02-02T08:10:23;1002.28;;;5.17;63.03
48810;BME280;40070;47.322;18.784;2023-02-02T08:12:26;1002.22;;;5.11;63.36
48810;BME280;40070;47.322;18.784;2023-02-02T08:14:28;1002.30;;;5.09;62.99
48810;BME280;40070;47.322;18.784;2023-02-02T08:16:31;1002.39;;;5.17;63.13
48810;BME280;40070;47.322;18.784;2023-02-02T08:18:34;1002.33;;;5.22;62.92
48810;BME280;40070;47.322;18.784;2023-02-02T08:20:37;1002.31;;;5.25;62.43
48810;BME280;40070;47.322;18.784;2023-02-02T08:22:39;1002.36;;;5.45;61.98
48810;BME280;40070;47.322;18.784;2023-02-02T08:24:41;1002.37;;;5.44;62.22
48810;BME280;40070;47.322;18.784;2023-02-02T08:26:44;1002.47;;;5.35;61.61
48810;BME280;40070;47.322;18.784;2023-02-02T08:28:47;1002.39;;;5.21;61.85
48810;BME280;40070;47.322;18.784;2023-02-02T08:30:49;1002.43;;;5.27;62.11
48810;BME280;40070;47.322;18.784;2023-02-02T08:32:52;1002.35;;;5.33;61.65
48810;BME280;40070;47.322;18.784;2023-02-02T08:34:54;1002.37;;;5.47;61.64
48810;BME280;40070;47.322;18.784;2023-02-02T08:36:56;1002.37;;;5.60;61.77
48810;BME280;40070;47.322;18.784;2023-02-02T08:39:00;1002.37;;;5.91;61.20
48810;BME280;40070;47.322;18.784;2023-02-02T08:41:04;1002.38;;;6.10;60.26
48810;BME280;40070;47.322;18.784;2023-02-02T08:43:07;1002.38;;;6.27;59.79
48810;BME280;40070;47.322;18.784;2023-02-02T08:45:09;1002.32;;;6.35;59.18
48810;BME280;40070;47.322;18.784;2023-02-02T08:47:11;1002.35;;;6.25;58.74
48810;BME280;40070;47.322;18.784;2023-02-02T08:49:14;1002.32;;;6.38;58.26
48810;BME280;40070;47.322;18.784;2023-02-02T08:51:17;1002.32;;;6.39;58.36
48810;BME280;40070;47.322;18.784;2023-02-02T08:53:20;1002.39;;;6.36;57.92
48810;BME280;40070;47.322;18.784;2023-02-02T08:55:22;1002.31;;;6.32;57.30
48810;BME280;40070;47.322;18.784;2023-02-02T08:57:25;1002.35;;;6.31;57.96
48810;BME280;40070;47.322;18.784;2023-02-02T08:59:28;1002.34;;;6.34;58.38
48810;BME280;40070;47.322;18.784;2023-02-02T09:01:31;1002.30;;;6.51;57.63
48810;BME280;40070;47.322;18.784;2023-02-02T09:03:34;1002.32;;;6.83;57.04
48810;BME280;40070;47.322;18.784;2023-02-02T09:05:36;1002.34;;;6.92;56.42
48810;BME280;40070;47.322;18.784;2023-02-02T09:07:38;1002.45;;;6.95;56.53
48810;BME280;40070;47.322;18.784;2023-02-02T09:09:41;1002.49;;;6.63;56.34
48810;BME280;40070;47.322;18.784;2023-02-02T09:11:43;1002.50;;;6.60;56.75
48810;BME280;40070;47.322;18.784;2023-02-02T09:13:47;1002.48;;;6.41;56.44
48810;BME280;40070;47.322;18.784;2023-02-02T09:15:49;1002.40;;;6.58;56.84
48810;BME280;40070;47.322;18.784;2023-02-02T09:17:52;1002.45;;;6.63;55.80
48810;BME280;40070;47.322;18.784;2023-02-02T09:19:54;1002.50;;;6.64;56.52
48810;BME280;40070;47.322;18.784;2023-02-02T09:21:56;1002.46;;;6.74;56.00
48810;BME280;40070;47.322;18.784;2023-02-02T09:23:59;1002.38;;;6.92;55.88
48810;BME280;40070;47.322;18.784;2023-02-02T09:26:08;1002.37;;;7.04;54.65
48810;BME280;40070;47.322;18.784;2023-02-02T09:28:10;1002.40;;;7.24;54.26
48810;BME280;40070;47.322;18.784;2023-02-02T09:30:13;1002.34;;;7.15;55.14
48810;BME280;40070;47.322;18.784;2023-02-02T09:32:15;1002.45;;;7.36;54.42
48810;BME280;40070;47.322;18.784;2023-02-02T09:34:17;1002.38;;;7.64;54.14
48810;BME280;40070;47.322;18.784;2023-02-02T09:36:21;1002.33;;;7.64;53.67
48810;BME280;40070;47.322;18.784;2023-02-02T09:38:23;1002.47;;;7.47;53.70
48810;BME280;40070;47.322;18.784;2023-02-02T09:40:26;1002.46;;;7.49;53.81
48810;BME280;40070;47.322;18.784;2023-02-02T09:42:39;1002.41;;;7.51;54.25
48810;BME280;40070;47.322;18.784;2023-02-02T09:49:43;1002.31;;;7.82;51.89
48810;BME280;40070;47.322;18.784;2023-02-02T09:51:50;1002.52;;;7.85;52.71
48810;BME280;40070;47.322;18.784;2023-02-02T09:53:55;1002.56;;;7.86;53.82
48810;BME280;40070;47.322;18.784;2023-02-02T09:56:00;1002.49;;;7.80;53.65
48810;BME280;40070;47.322;18.784;2023-02-02T09:58:16;1002.46;;;7.57;53.59
48810;BME280;40070;47.322;18.784;2023-02-02T10:00:29;1002.50;;;7.54;53.51
48810;BME280;40070;47.322;18.784;2023-02-02T10:02:35;1002.50;;;7.18;54.76
48810;BME280;40070;47.322;18.784;2023-02-02T10:04:40;1002.43;;;7.11;54.73
48810;BME280;40070;47.322;18.784;2023-02-02T10:06:45;1002.48;;;7.44;54.68
48810;BME280;40070;47.322;18.784;2023-02-02T10:08:53;1002.46;;;7.84;54.24
48810;BME280;40070;47.322;18.784;2023-02-02T10:10:56;1002.45;;;7.99;53.17
48810;BME280;40070;47.322;18.784;2023-02-02T10:14:00;1002.64;;;8.15;52.97
48810;BME280;40070;47.322;18.784;2023-02-02T10:15:40;1002.52;;;8.05;51.75
48810;BME280;40070;47.322;18.784;2023-02-02T10:17:57;1002.63;;;8.40;51.93
48810;BME280;40070;47.322;18.784;2023-02-02T10:20:02;1002.67;;;8.57;51.39
48810;BME280;40070;47.322;18.784;2023-02-02T10:22:11;1002.65;;;8.70;50.86
48810;BME280;40070;47.322;18.784;2023-02-02T10:24:20;1002.70;;;8.69;51.03
48810;BME280;40070;47.322;18.784;2023-02-02T10:31:01;1002.81;;;7.93;52.26
48810;BME280;40070;47.322;18.784;2023-02-02T10:33:04;1002.76;;;7.74;53.17
48810;BME280;40070;47.322;18.784;2023-02-02T10:37:41;1002.77;;;7.85;53.95
48810;BME280;40070;47.322;18.784;2023-02-02T10:44:35;1002.77;;;8.10;52.09
48810;BME280;40070;47.322;18.784;2023-02-02T10:46:39;1002.74;;;8.39;52.14
48810;BME280;40070;47.322;18.784;2023-02-02T10:48:44;1002.78;;;8.29;52.69
48810;BME280;40070;47.322;18.784;2023-02-02T10:50:48;1002.73;;;8.29;52.42
48810;BME280;40070;47.322;18.784;2023-02-02T10:53:00;1002.68;;;8.38;51.61
48810;BME280;40070;47.322;18.784;2023-02-02T10:59:57;1002.69;;;8.44;51.40
48810;BME280;40070;47.322;18.784;2023-02-02T11:02:06;1002.62;;;8.28;51.61
48810;BME280;40070;47.322;18.784;2023-02-02T11:04:10;1002.73;;;8.40;51.57
48810;BME280;40070;47.322;18.784;2023-02-02T11:06:13;1002.70;;;8.52;51.13
48810;BME280;40070;47.322;18.784;2023-02-02T11:08:32;1002.76;;;8.51;51.45
48810;BME280;40070;47.322;18.784;2023-02-02T11:10:35;1002.66;;;8.52;50.52
48810;BME280;40070;47.322;18.784;2023-02-02T11:12:40;1002.80;;;8.83;51.17
48810;BME280;40070;47.322;18.784;2023-02-02T11:14:51;1002.69;;;8.73;50.75
48810;BME280;40070;47.322;18.784;2023-02-02T11:16:59;1002.66;;;8.51;50.68
48810;BME280;40070;47.322;18.784;2023-02-02T11:19:20;1002.69;;;8.62;50.76
48810;BME280;40070;47.322;18.784;2023-02-02T11:21:30;1002.60;;;8.84;50.41
48810;BME280;40070;47.322;18.784;2023-02-02T11:23:33;1002.66;;;9.22;49.14
48810;BME280;40070;47.322;18.784;2023-02-02T11:25:35;1002.61;;;9.18;48.79
48810;BME280;40070;47.322;18.784;2023-02-02T11:27:39;1002.61;;;9.41;49.56
48810;BME280;40070;47.322;18.784;2023-02-02T11:29:44;1002.52;;;9.75;48.62
48810;BME280;40070;47.322;18.784;2023-02-02T11:31:47;1002.67;;;9.59;48.46
48810;BME280;40070;47.322;18.784;2023-02-02T11:33:49;1002.60;;;9.22;48.45
48810;BME280;40070;47.322;18.784;2023-02-02T11:35:56;1002.60;;;9.11;49.10
48810;BME280;40070;47.322;18.784;2023-02-02T11:38:09;1002.60;;;8.83;48.90
48810;BME280;40070;47.322;18.784;2023-02-02T11:40:45;1002.63;;;8.44;49.97
48810;BME280;40070;47.322;18.784;2023-02-02T11:42:32;1002.63;;;8.42;50.64
48810;BME280;40070;47.322;18.784;2023-02-02T11:44:34;1002.68;;;8.43;51.22
48810;BME280;40070;47.322;18.784;2023-02-02T11:46:39;1002.74;;;8.53;50.93